Time;durP1;ratioP1;P1;durP2;ratioP2;P2;SDS_P1;SDS_P2;PMS_P1;PMS_P2;Temp;Humidity;BMP_temperature;BMP_pressure;BME280_temperature;BME280_humidity;BME280_pressure;Samples;Min_cycle;Max_cycle;Signal;HPM_P1;HPM_P2
2023/08/07 00:01:45;;;;;;;2.33;1.73;;;14.00;99.90;;;;;;5110136;28;20020;-76
2023/08/07 00:04:11;;;;;;;2.55;1.85;;;14.00;99.90;;;;;;5089037;28;20024;-76
2023/08/07 00:06:36;;;;;;;2.60;1.80;;;14.00;99.90;;;;;;5110004;28;20073;-76
2023/08/07 00:09:02;;;;;;;2.05;1.55;;;14.00;99.90;;;;;;5089622;28;20118;-76
2023/08/07 00:11:28;;;;;;;3.55;1.60;;;14.00;99.90;;;;;;5107871;28;20032;-75
2023/08/07 00:13:54;;;;;;;5.50;1.92;;;14.10;99.90;;;;;;5089904;28;20369;-75
2023/08/07 00:16:19;;;;;;;3.15;1.75;;;14.00;99.90;;;;;;5088250;28;20036;-76
2023/08/07 00:18:45;;;;;;;2.88;1.92;;;14.00;99.90;;;;;;5108846;28;20080;-76
2023/08/07 00:21:10;;;;;;;2.83;1.80;;;14.00;99.90;;;;;;5087856;28;20020;-75
2023/08/07 00:23:36;;;;;;;4.43;2.10;;;14.00;99.90;;;;;;5108752;28;20023;-76
2023/08/07 00:26:01;;;;;;;2.80;1.92;;;14.00;99.90;;;;;;5087961;28;20484;-76
2023/08/07 00:28:28;;;;;;;4.95;2.22;;;14.00;99.90;;;;;;5108815;28;20024;-76
2023/08/07 00:30:53;;;;;;;1.85;1.73;;;14.00;99.90;;;;;;5087544;28;20119;-74
2023/08/07 00:33:19;;;;;;;3.95;2.17;;;13.90;99.90;;;;;;5107222;28;20107;-75
2023/08/07 00:35:44;;;;;;;3.20;2.38;;;14.00;99.90;;;;;;5084923;28;20441;-75
2023/08/07 00:38:10;;;;;;;3.55;2.05;;;13.90;99.90;;;;;;5108693;28;20110;-75
2023/08/07 00:40:39;;;;;;;3.28;2.08;;;14.00;99.90;;;;;;5087767;28;20032;-76
2023/08/07 00:43:05;;;;;;;3.03;2.00;;;13.90;99.90;;;;;;5107600;28;20055;-57
2023/08/07 00:45:36;;;;;;;3.53;2.00;;;13.90;99.90;;;;;;5086156;28;20085;-55
2023/08/07 00:48:02;;;;;;;3.47;1.48;;;13.90;99.90;;;;;;5068432;28;20043;-57
2023/08/07 00:50:28;;;;;;;1.65;1.23;;;14.00;99.90;;;;;;5094781;28;20076;-57
2023/08/07 00:52:54;;;;;;;2.45;1.77;;;14.00;99.90;;;;;;5108249;28;20023;-59
2023/08/07 00:55:19;;;;;;;3.97;2.17;;;14.00;99.90;;;;;;5097641;28;20291;-58
2023/08/07 00:57:45;;;;;;;3.10;2.10;;;14.00;99.90;;;;;;5089323;28;20032;-56
2023/08/07 01:00:14;;;;;;;5.28;2.08;;;14.10;99.90;;;;;;5106283;28;20070;-58
2023/08/07 01:02:40;;;;;;;2.70;2.00;;;14.10;99.90;;;;;;5088580;28;20032;-57
2023/08/07 01:05:05;;;;;;;2.30;1.88;;;14.10;99.90;;;;;;5106241;28;20024;-58
2023/08/07 01:07:31;;;;;;;4.35;1.90;;;14.10;99.90;;;;;;5089275;28;20059;-58
2023/08/07 01:09:57;;;;;;;2.13;1.83;;;14.10;99.90;;;;;;5106280;28;20035;-58
2023/08/07 01:12:30;;;;;;;3.22;2.25;;;14.10;99.90;;;;;;5108777;28;20020;-57
2023/08/07 01:15:13;;;;;;;2.60;1.90;;;14.10;99.90;;;;;;5080635;28;20062;-58
2023/08/07 01:17:40;;;;;;;4.55;2.08;;;14.20;99.90;;;;;;5108887;28;20028;-53
2023/08/07 01:20:08;;;;;;;3.35;1.95;;;14.20;99.90;;;;;;5095436;28;20072;-58
2023/08/07 01:22:33;;;;;;;2.63;1.80;;;14.20;99.90;;;;;;5088945;28;20040;-59
2023/08/07 01:24:59;;;;;;;3.40;1.83;;;14.20;99.90;;;;;;5109007;28;20403;-58
2023/08/07 01:27:34;;;;;;;2.35;1.80;;;14.20;99.90;;;;;;5112686;28;20020;-56
2023/08/07 01:30:23;;;;;;;2.83;2.03;;;14.20;99.90;;;;;;5085018;28;20499;-58
2023/08/07 01:32:57;;;;;;;4.45;2.20;;;14.20;99.90;;;;;;5072009;28;20051;-58
2023/08/07 01:35:25;;;;;;;4.70;2.17;;;14.20;99.90;;;;;;5105052;28;20050;-58
2023/08/07 01:37:53;;;;;;;5.28;1.90;;;14.20;99.90;;;;;;5092275;27;20024;-57
2023/08/07 01:40:20;;;;;;;2.50;2.03;;;14.20;99.90;;;;;;5109982;28;20066;-57
2023/08/07 01:42:47;;;;;;;4.07;2.20;;;14.20;99.90;;;;;;5092031;28;20076;-58
2023/08/07 01:45:12;;;;;;;4.32;2.28;;;14.20;99.90;;;;;;5109793;28;20174;-57
2023/08/07 01:47:38;;;;;;;2.03;1.73;;;14.20;99.90;;;;;;5092159;28;20111;-58
2023/08/07 01:50:04;;;;;;;2.53;1.90;;;14.20;99.90;;;;;;5109215;28;20032;-56
2023/08/07 01:52:30;;;;;;;3.55;2.17;;;14.20;99.90;;;;;;5092218;28;20035;-57
2023/08/07 01:54:55;;;;;;;2.88;1.90;;;14.20;99.90;;;;;;5109326;28;20027;-56
2023/08/07 01:57:21;;;;;;;4.10;2.03;;;14.20;99.90;;;;;;5111854;28;20027;-57
2023/08/07 01:59:46;;;;;;;3.78;1.98;;;14.20;99.90;;;;;;5096090;28;20023;-59
2023/08/07 02:02:12;;;;;;;4.10;1.92;;;14.20;99.90;;;;;;5111871;28;20647;-59
2023/08/07 02:04:37;;;;;;;2.80;2.13;;;14.20;99.90;;;;;;5094998;28;20422;-57
2023/08/07 02:07:03;;;;;;;2.13;1.77;;;14.10;99.90;;;;;;5110173;28;20020;-56
2023/08/07 02:09:28;;;;;;;3.28;1.95;;;14.10;99.90;;;;;;5093211;28;20020;-57
2023/08/07 02:11:54;;;;;;;2.72;1.55;;;14.10;99.90;;;;;;5112064;28;20024;-57
2023/08/07 02:14:19;;;;;;;1.63;1.50;;;14.20;99.90;;;;;;5091836;28;20032;-57
2023/08/07 02:16:45;;;;;;;2.50;2.22;;;14.20;99.90;;;;;;5111991;28;20506;-62
2023/08/07 02:19:10;;;;;;;2.58;1.88;;;14.10;99.90;;;;;;5090477;28;20081;-62
2023/08/07 02:21:36;;;;;;;4.90;2.10;;;14.20;99.90;;;;;;5111921;28;20068;-60
2023/08/07 02:24:01;;;;;;;2.42;1.80;;;14.20;99.90;;;;;;5091459;28;20035;-61
2023/08/07 02:26:27;;;;;;;2.58;1.95;;;14.20;99.90;;;;;;5107874;28;20024;-61
2023/08/07 02:28:52;;;;;;;2.58;2.35;;;14.20;99.90;;;;;;5091551;28;20040;-60
2023/08/07 02:31:18;;;;;;;2.80;2.08;;;14.10;99.90;;;;;;5089820;28;20519;-60
2023/08/07 02:33:43;;;;;;;4.13;1.90;;;14.10;99.90;;;;;;5100818;28;20051;-60
2023/08/07 02:36:09;;;;;;;3.10;2.22;;;14.20;99.90;;;;;;5087984;28;20453;-60
2023/08/07 02:38:34;;;;;;;3.03;2.22;;;14.20;99.90;;;;;;5110676;28;20132;-61
2023/08/07 02:41:00;;;;;;;5.72;2.35;;;14.20;99.90;;;;;;5089368;28;20017;-60
2023/08/07 02:43:28;;;;;;;2.58;1.95;;;14.20;99.90;;;;;;5110654;28;20508;-60
2023/08/07 02:45:54;;;;;;;3.90;2.38;;;14.20;99.90;;;;;;5089018;28;20391;-60
2023/08/07 02:48:19;;;;;;;2.80;1.85;;;14.20;99.90;;;;;;5110167;28;20027;-60
2023/08/07 02:50:45;;;;;;;2.65;2.17;;;14.30;99.90;;;;;;5089173;28;20036;-60
2023/08/07 02:53:11;;;;;;;4.53;2.20;;;14.30;99.90;;;;;;5110034;28;20035;-60
2023/08/07 02:55:37;;;;;;;3.45;1.77;;;14.30;99.90;;;;;;5089168;28;20212;-60
2023/08/07 02:58:02;;;;;;;6.25;2.28;;;14.30;99.90;;;;;;5109821;28;20034;-60
2023/08/07 03:00:28;;;;;;;2.60;1.85;;;14.30;99.90;;;;;;5089168;28;20052;-61
2023/08/07 03:02:53;;;;;;;2.58;2.25;;;14.40;99.90;;;;;;5110019;28;20024;-61
2023/08/07 03:05:19;;;;;;;2.85;2.42;;;14.40;99.90;;;;;;5099148;28;20058;-60
2023/08/07 03:07:44;;;;;;;3.22;2.03;;;14.50;99.90;;;;;;5090753;28;20036;-60
2023/08/07 03:10:10;;;;;;;5.55;2.47;;;14.50;99.90;;;;;;5106499;28;20072;-60
2023/08/07 03:12:37;;;;;;;3.85;2.50;;;14.50;99.90;;;;;;5090683;28;20511;-60
2023/08/07 03:15:03;;;;;;;3.75;2.65;;;14.50;99.90;;;;;;5107820;28;20023;-60
2023/08/07 03:17:29;;;;;;;5.50;3.13;;;14.50;99.90;;;;;;5090513;27;20028;-60
2023/08/07 03:19:54;;;;;;;5.57;2.42;;;14.50;99.90;;;;;;5107693;28;20511;-59
2023/08/07 03:22:20;;;;;;;5.60;3.50;;;14.50;99.90;;;;;;5110162;28;20087;-60
2023/08/07 03:24:48;;;;;;;4.90;3.13;;;14.40;99.90;;;;;;5094224;28;20487;-61
2023/08/07 03:27:14;;;;;;;7.38;3.75;;;14.40;99.90;;;;;;5110371;28;20024;-60
2023/08/07 03:29:40;;;;;;;4.88;3.55;;;14.40;99.90;;;;;;5092965;28;20180;-60
2023/08/07 03:32:06;;;;;;;3.25;2.90;;;14.40;99.90;;;;;;5108888;28;20024;-60
2023/08/07 03:34:31;;;;;;;5.10;3.22;;;14.40;99.90;;;;;;5090937;28;20032;-60
2023/08/07 03:36:59;;;;;;;8.10;3.50;;;14.50;99.90;;;;;;5089710;28;20450;-61
2023/08/07 03:39:24;;;;;;;5.15;2.95;;;14.50;99.90;;;;;;5108085;28;20951;-60
2023/08/07 03:41:50;;;;;;;4.93;3.47;;;14.50;99.90;;;;;;5109961;28;20032;-60
2023/08/07 03:44:16;;;;;;;5.80;3.15;;;14.50;99.90;;;;;;5089827;28;20717;-60
2023/08/07 03:46:42;;;;;;;3.92;2.88;;;14.60;99.90;;;;;;5109395;28;20265;-60
2023/08/07 03:49:07;;;;;;;3.45;2.75;;;14.60;99.90;;;;;;5088457;28;20418;-60
2023/08/07 03:51:33;;;;;;;7.25;2.80;;;14.60;99.90;;;;;;5108385;28;20503;-60
2023/08/07 03:53:58;;;;;;;4.78;3.05;;;14.60;99.90;;;;;;5089837;28;20032;-60
2023/08/07 03:56:24;;;;;;;6.63;3.42;;;14.60;99.90;;;;;;5087509;28;20099;-61
2023/08/07 03:58:50;;;;;;;5.43;2.65;;;14.70;99.90;;;;;;5108959;28;20031;-61
2023/08/07 04:01:16;;;;;;;7.93;3.80;;;14.70;99.90;;;;;;5088073;28;20036;-61
2023/08/07 04:03:42;;;;;;;6.22;3.28;;;14.70;99.90;;;;;;5108761;28;20600;-61
2023/08/07 04:06:07;;;;;;;6.07;3.28;;;14.70;99.90;;;;;;5087804;28;20095;-60
2023/08/07 04:08:33;;;;;;;4.30;3.03;;;14.80;99.90;;;;;;5108807;28;20043;-60
2023/08/07 04:11:05;;;;;;;5.85;3.20;;;14.80;99.90;;;;;;5087700;28;20036;-60
2023/08/07 04:13:31;;;;;;;6.88;2.67;;;14.90;99.90;;;;;;5109459;28;20020;-60
2023/08/07 04:15:57;;;;;;;6.40;3.10;;;15.00;99.90;;;;;;5086602;28;20028;-60
2023/08/07 04:18:24;;;;;;;8.35;3.08;;;15.10;99.90;;;;;;5108662;28;20042;-60
2023/08/07 04:20:53;;;;;;;4.20;3.45;;;15.10;99.90;;;;;;5087853;28;20036;-60
2023/08/07 04:23:19;;;;;;;5.20;3.10;;;15.20;99.90;;;;;;5108589;28;20027;-61
2023/08/07 04:25:47;;;;;;;5.20;3.22;;;15.30;99.90;;;;;;5087831;28;20030;-61
2023/08/07 04:28:13;;;;;;;4.10;2.90;;;15.40;99.90;;;;;;5108960;28;20562;-61
2023/08/07 04:30:38;;;;;;;4.38;3.55;;;15.40;99.90;;;;;;5087427;28;20136;-61
2023/08/07 04:33:05;;;;;;;6.82;3.35;;;15.50;99.90;;;;;;5108557;28;20054;-61
2023/08/07 04:35:30;;;;;;;5.68;3.08;;;15.60;99.90;;;;;;5084843;28;20077;-60
2023/08/07 04:37:56;;;;;;;3.83;3.08;;;15.80;99.90;;;;;;5108708;28;20035;-60
2023/08/07 04:40:22;;;;;;;6.13;2.95;;;15.90;99.90;;;;;;5097953;28;20265;-61
2023/08/07 04:42:49;;;;;;;5.85;3.30;;;16.10;99.90;;;;;;5089416;28;20030;-60
2023/08/07 04:45:15;;;;;;;6.38;3.72;;;16.10;99.90;;;;;;5106812;28;20077;-63
2023/08/07 04:47:41;;;;;;;8.88;3.13;;;16.10;99.90;;;;;;5087778;28;20020;-63
2023/08/07 04:50:08;;;;;;;5.57;3.00;;;16.10;99.90;;;;;;5106464;28;20038;-62
2023/08/07 04:52:33;;;;;;;6.00;3.13;;;16.20;99.90;;;;;;5089297;28;20020;-63
2023/08/07 04:54:59;;;;;;;7.43;2.90;;;16.50;99.90;;;;;;5106208;28;20084;-63
2023/08/07 04:57:24;;;;;;;2.65;2.45;;;17.00;99.90;;;;;;5109109;28;20506;-62
2023/08/07 04:59:50;;;;;;;3.33;2.50;;;18.10;99.90;;;;;;5096580;28;20133;-62
2023/08/07 05:02:16;;;;;;;5.30;2.50;;;18.20;99.90;;;;;;5113189;28;20103;-62
2023/08/07 05:04:41;;;;;;;3.70;2.70;;;18.20;99.50;;;;;;5096097;28;20556;-62
2023/08/07 05:07:07;;;;;;;3.42;2.78;;;18.10;99.70;;;;;;5112810;28;20024;-61
2023/08/07 05:09:32;;;;;;;3.53;2.40;;;18.50;97.20;;;;;;5095008;28;20041;-62
2023/08/07 05:11:57;;;;;;;5.22;2.70;;;18.40;97.50;;;;;;5113036;28;20032;-62
2023/08/07 05:14:23;;;;;;;3.33;2.58;;;18.40;97.60;;;;;;5093327;28;20169;-62
2023/08/07 05:16:48;;;;;;;2.40;2.08;;;18.50;97.40;;;;;;5112893;28;20503;-62
2023/08/07 05:19:14;;;;;;;4.50;2.28;;;18.30;96.20;;;;;;5092415;28;20035;-63
2023/08/07 05:21:39;;;;;;;2.95;2.30;;;18.60;96.30;;;;;;5112491;28;20028;-62
2023/08/07 05:24:05;;;;;;;3.65;2.78;;;18.90;91.70;;;;;;5091277;28;20188;-62
2023/08/07 05:26:31;;;;;;;5.40;2.58;;;19.40;90.60;;;;;;5092206;28;20023;-61
2023/08/07 05:28:57;;;;;;;2.75;2.30;;;19.20;89.80;;;;;;5111882;28;20029;-61
2023/08/07 05:31:24;;;;;;;3.70;2.22;;;19.00;91.40;;;;;;5090361;28;20399;-62
2023/08/07 05:33:49;;;;;;;2.88;2.15;;;18.80;90.80;;;;;;5100250;28;20073;-62
2023/08/07 05:36:15;;;;;;;2.50;2.00;;;18.60;91.90;;;;;;5090152;28;20040;-62
2023/08/07 05:38:40;;;;;;;4.30;2.22;;;18.60;91.20;;;;;;5111378;28;20027;-62
2023/08/07 05:41:06;;;;;;;5.97;2.05;;;18.50;90.90;;;;;;5089193;28;20114;-61
2023/08/07 05:43:31;;;;;;;3.45;1.80;;;18.50;91.30;;;;;;5111564;28;20034;-62
2023/08/07 05:45:57;;;;;;;3.70;2.40;;;18.60;90.90;;;;;;5090474;28;20246;-62
2023/08/07 05:48:23;;;;;;;2.33;1.90;;;18.50;91.10;;;;;;5111383;28;20032;-62
2023/08/07 05:50:48;;;;;;;2.78;2.20;;;18.40;90.80;;;;;;5090451;28;20081;-62
2023/08/07 05:53:14;;;;;;;2.42;2.22;;;18.50;90.90;;;;;;5111114;28;20080;-61
2023/08/07 05:55:43;;;;;;;5.63;1.80;;;18.60;90.60;;;;;;5090025;28;20043;-62
2023/08/07 05:58:08;;;;;;;5.93;2.25;;;18.60;90.90;;;;;;5111689;28;20035;-62
2023/08/07 06:00:34;;;;;;;3.05;2.20;;;18.70;90.80;;;;;;5090426;28;20086;-62
2023/08/07 06:03:00;;;;;;;2.75;2.00;;;18.60;89.70;;;;;;5107879;28;20024;-62
2023/08/07 06:05:25;;;;;;;3.22;1.63;;;18.60;89.30;;;;;;5092157;28;20056;-62
2023/08/07 06:07:51;;;;;;;5.53;2.42;;;18.60;91.00;;;;;;5100822;28;20032;-62
2023/08/07 06:10:16;;;;;;;5.00;1.88;;;18.60;90.40;;;;;;5110852;28;20039;-62
2023/08/07 06:12:42;;;;;;;2.67;2.05;;;18.60;90.60;;;;;;5089849;28;20056;-62
2023/08/07 06:15:08;;;;;;;5.03;2.30;;;18.60;90.60;;;;;;5091499;28;20035;-62
2023/08/07 06:17:34;;;;;;;1.80;1.70;;;18.60;88.10;;;;;;5103224;28;20032;-62
2023/08/07 06:19:59;;;;;;;2.53;2.03;;;18.90;90.40;;;;;;5091344;28;20028;-61
2023/08/07 06:22:25;;;;;;;4.75;1.90;;;19.10;89.90;;;;;;5102851;28;20032;-62
2023/08/07 06:24:50;;;;;;;3.08;1.50;;;19.70;87.70;;;;;;5090085;28;20092;-62
2023/08/07 06:27:16;;;;;;;4.00;1.80;;;20.50;86.10;;;;;;5104053;28;20435;-63
2023/08/07 06:29:41;;;;;;;2.72;1.58;;;20.80;83.40;;;;;;5092367;28;20099;-62
2023/08/07 06:32:07;;;;;;;5.85;2.13;;;20.60;81.50;;;;;;5107259;28;20030;-62
2023/08/07 06:34:34;;;;;;;1.98;1.77;;;20.60;79.10;;;;;;5099535;28;20032;-62
2023/08/07 06:37:00;;;;;;;3.05;2.08;;;20.50;81.80;;;;;;5089268;28;20028;-62
2023/08/07 06:39:25;;;;;;;2.67;1.67;;;20.40;80.90;;;;;;5091217;28;20442;-62
2023/08/07 06:41:51;;;;;;;2.15;1.63;;;20.70;80.70;;;;;;5108734;28;20027;-61
2023/08/07 06:44:16;;;;;;;2.60;1.60;;;21.00;78.30;;;;;;5090921;28;20077;-62
2023/08/07 06:46:42;;;;;;;4.38;1.70;;;21.30;77.00;;;;;;5110297;28;20077;-62
2023/08/07 06:49:07;;;;;;;3.83;1.80;;;21.80;75.10;;;;;;5089408;28;20443;-61
2023/08/07 06:51:33;;;;;;;4.28;1.60;;;21.70;72.30;;;;;;5108927;28;20057;-62
2023/08/07 06:53:58;;;;;;;3.80;1.80;;;22.00;73.20;;;;;;5088034;28;20720;-62
2023/08/07 06:56:24;;;;;;;2.70;1.75;;;22.20;70.00;;;;;;5110227;28;20096;-62
2023/08/07 06:58:49;;;;;;;2.42;1.67;;;22.20;70.30;;;;;;5089383;28;20040;-62
2023/08/07 07:01:15;;;;;;;2.38;1.73;;;22.30;71.10;;;;;;5110230;28;20027;-61
2023/08/07 07:03:40;;;;;;;4.35;1.60;;;22.30;70.30;;;;;;5089121;28;20644;-62
2023/08/07 07:06:06;;;;;;;1.88;1.35;;;22.10;65.90;;;;;;5108791;28;20020;-61
2023/08/07 07:08:31;;;;;;;1.92;1.58;;;21.70;70.10;;;;;;5089205;28;20404;-62
2023/08/07 07:10:58;;;;;;;3.03;1.63;;;21.50;70.20;;;;;;5110001;28;20558;-61
2023/08/07 07:13:23;;;;;;;7.50;2.13;;;21.20;70.70;;;;;;5088744;28;20086;-62
2023/08/07 07:15:54;;;;;;;2.60;1.70;;;21.00;70.30;;;;;;5110070;28;20066;-62
2023/08/07 07:18:19;;;;;;;6.32;1.80;;;20.80;70.40;;;;;;5080608;28;20502;-62
2023/08/07 07:20:45;;;;;;;1.67;1.30;;;20.60;68.60;;;;;;5108105;28;20114;-62
2023/08/07 07:23:10;;;;;;;2.50;1.65;;;20.40;71.00;;;;;;5088413;28;20034;-62
2023/08/07 07:25:35;;;;;;;1.40;1.27;;;20.40;71.60;;;;;;5109857;28;20476;-62
2023/08/07 07:28:01;;;;;;;1.80;1.42;;;20.40;70.80;;;;;;5088526;28;20036;-61
2023/08/07 07:30:26;;;;;;;2.25;1.73;;;20.50;71.50;;;;;;5101080;28;20040;-62
2023/08/07 07:32:52;;;;;;;3.17;1.65;;;20.50;69.80;;;;;;5099059;28;20488;-62
2023/08/07 07:35:18;;;;;;;3.47;1.40;;;20.60;70.00;;;;;;5103271;28;20637;-62
2023/08/07 07:37:43;;;;;;;2.72;1.20;;;20.80;70.80;;;;;;5088292;28;20392;-62
2023/08/07 07:40:10;;;;;;;2.42;1.55;;;21.10;69.30;;;;;;5089921;28;20079;-62
2023/08/07 07:42:35;;;;;;;2.13;1.42;;;21.30;68.40;;;;;;5101374;28;20500;-62
2023/08/07 07:45:01;;;;;;;1.52;1.30;;;21.50;67.20;;;;;;5089630;28;20073;-62
2023/08/07 07:47:26;;;;;;;4.18;1.35;;;21.70;66.80;;;;;;5102509;28;20085;-62
2023/08/07 07:50:08;;;;;;;2.75;1.30;;;21.90;65.60;;;;;;5089775;28;20032;-62
2023/08/07 07:52:34;;;;;;;2.25;1.20;;;22.30;64.30;;;;;;5073470;28;20032;-62
2023/08/07 07:55:00;;;;;;;2.63;1.30;;;22.60;62.10;;;;;;5089319;28;20576;-61
2023/08/07 07:57:26;;;;;;;2.15;1.40;;;22.70;62.90;;;;;;5102470;28;20107;-62
2023/08/07 07:59:51;;;;;;;5.82;1.35;;;22.90;63.00;;;;;;5089759;28;20039;-62
2023/08/07 08:02:17;;;;;;;2.92;1.30;;;23.20;63.40;;;;;;5103621;28;20024;-62
2023/08/07 08:04:42;;;;;;;2.63;1.60;;;23.20;59.20;;;;;;5089549;28;20035;-62
2023/08/07 08:07:08;;;;;;;4.18;1.48;;;22.90;61.90;;;;;;5104745;28;20032;-61
2023/08/07 08:09:34;;;;;;;2.92;1.42;;;22.70;62.40;;;;;;5089645;28;20096;-62
2023/08/07 08:11:59;;;;;;;1.70;1.40;;;22.20;61.90;;;;;;5105723;28;20040;-61
2023/08/07 08:14:25;;;;;;;2.55;1.17;;;21.80;61.80;;;;;;5089515;28;20103;-62
2023/08/07 08:16:50;;;;;;;2.70;1.30;;;21.60;62.20;;;;;;5108995;28;20092;-62
2023/08/07 08:19:16;;;;;;;2.40;1.20;;;21.30;60.90;;;;;;5069253;28;20040;-62
2023/08/07 08:21:42;;;;;;;4.30;1.33;;;21.10;62.20;;;;;;5108005;28;20380;-63
2023/08/07 08:24:08;;;;;;;2.50;1.50;;;20.90;62.60;;;;;;5088011;28;20153;-62
2023/08/07 08:26:33;;;;;;;4.60;1.48;;;20.80;62.00;;;;;;5109317;28;20103;-74
2023/08/07 08:28:59;;;;;;;2.25;1.52;;;20.80;64.10;;;;;;5088134;28;20058;-75
2023/08/07 08:31:24;;;;;;;5.00;1.50;;;20.80;63.90;;;;;;5108728;28;20047;-74
2023/08/07 08:33:50;;;;;;;1.95;1.30;;;20.80;64.90;;;;;;5090420;28;20031;-53
2023/08/07 08:36:15;;;;;;;1.95;1.30;;;21.00;64.60;;;;;;5113746;27;20023;-55
2023/08/07 08:38:41;;;;;;;2.95;1.23;;;21.00;62.50;;;;;;5091946;28;20031;-54
2023/08/07 08:41:09;;;;;;;3.35;1.23;;;20.90;63.60;;;;;;5113020;28;20042;-52
2023/08/07 08:43:38;;;;;;;4.10;1.08;;;20.70;64.10;;;;;;5091809;28;20028;-63
2023/08/07 08:46:05;;;;;;;3.85;1.50;;;20.50;64.10;;;;;;5113192;28;20024;-62
2023/08/07 08:48:32;;;;;;;3.00;1.40;;;20.40;64.60;;;;;;5091808;28;20024;-62
2023/08/07 08:50:58;;;;;;;1.92;1.30;;;20.50;65.40;;;;;;5112974;28;20081;-62
2023/08/07 08:53:24;;;;;;;2.58;1.30;;;20.50;65.40;;;;;;5091747;28;20035;-63
2023/08/07 08:55:51;;;;;;;2.33;1.13;;;20.50;65.10;;;;;;5112754;28;20027;-63
2023/08/07 08:58:17;;;;;;;2.42;1.30;;;20.50;65.60;;;;;;5091578;28;20558;-62
2023/08/07 09:00:43;;;;;;;3.30;1.30;;;20.50;65.60;;;;;;5112554;28;20019;-62
2023/08/07 09:03:08;;;;;;;2.50;1.50;;;20.60;66.00;;;;;;5091512;28;20070;-62
2023/08/07 09:05:36;;;;;;;3.78;1.27;;;20.50;65.60;;;;;;5112517;28;20051;-63
2023/08/07 09:08:02;;;;;;;1.20;1.10;;;20.60;65.00;;;;;;5090868;28;20028;-62
2023/08/07 09:10:28;;;;;;;2.42;1.30;;;20.50;66.10;;;;;;5112420;28;20070;-63
2023/08/07 09:13:03;;;;;;;4.05;1.50;;;20.30;66.60;;;;;;5091264;28;20115;-62
2023/08/07 09:15:30;;;;;;;2.63;1.67;;;20.20;67.10;;;;;;5072626;28;20029;-62
2023/08/07 09:17:56;;;;;;;3.22;1.50;;;20.30;67.40;;;;;;5099661;28;20032;-62
2023/08/07 09:20:22;;;;;;;4.30;1.45;;;20.30;67.50;;;;;;5112038;28;20100;-62
2023/08/07 09:22:48;;;;;;;1.40;1.30;;;20.50;67.70;;;;;;5090959;28;20024;-63
2023/08/07 09:25:14;;;;;;;4.18;1.60;;;20.70;67.60;;;;;;5112173;28;20400;-63
2023/08/07 09:27:40;;;;;;;1.85;1.30;;;20.80;66.80;;;;;;5097650;28;20044;-63
2023/08/07 09:30:09;;;;;;;4.32;1.40;;;20.90;66.50;;;;;;5107189;28;20054;-63
2023/08/07 09:32:36;;;;;;;3.20;1.88;;;20.80;65.80;;;;;;5090482;28;20425;-63
2023/08/07 09:35:04;;;;;;;1.90;1.20;;;20.90;65.90;;;;;;5104068;28;20023;-62
2023/08/07 09:37:29;;;;;;;2.95;1.27;;;21.00;64.80;;;;;;5090497;28;20032;-63
2023/08/07 09:39:55;;;;;;;2.25;1.40;;;21.10;62.90;;;;;;5092147;28;20027;-62
2023/08/07 09:42:21;;;;;;;1.73;1.40;;;21.10;62.10;;;;;;5105488;28;20027;-62
2023/08/07 09:44:48;;;;;;;2.92;1.30;;;21.20;64.00;;;;;;5091507;28;20649;-63
2023/08/07 09:47:18;;;;;;;1.73;1.15;;;21.40;63.70;;;;;;5106860;28;20032;-62
2023/08/07 09:49:45;;;;;;;2.90;1.55;;;21.60;63.10;;;;;;5091998;28;20502;-62
2023/08/07 09:52:15;;;;;;;2.67;1.30;;;21.70;62.70;;;;;;5107102;28;20031;-62
2023/08/07 09:54:41;;;;;;;2.05;1.40;;;21.90;62.30;;;;;;5091764;28;20119;-65
2023/08/07 09:57:07;;;;;;;4.75;1.38;;;22.20;61.80;;;;;;5107512;28;20865;-63
2023/08/07 09:59:35;;;;;;;2.20;1.60;;;22.30;60.80;;;;;;5091956;28;20552;-63
2023/08/07 10:02:02;;;;;;;2.47;1.30;;;22.40;60.20;;;;;;5107871;28;20027;-62
2023/08/07 10:04:28;;;;;;;4.30;1.30;;;22.20;59.60;;;;;;5091901;28;20028;-63
2023/08/07 10:06:54;;;;;;;2.15;1.25;;;22.00;60.10;;;;;;5108919;28;20532;-61
2023/08/07 10:09:21;;;;;;;2.92;1.55;;;21.90;60.20;;;;;;5091647;28;20739;-62
2023/08/07 10:11:48;;;;;;;2.80;1.50;;;21.60;59.70;;;;;;5111472;28;20515;-63
2023/08/07 10:14:15;;;;;;;2.70;1.35;;;21.50;60.30;;;;;;5090020;28;20028;-62
2023/08/07 10:16:41;;;;;;;4.68;1.27;;;21.40;60.90;;;;;;5111181;28;20037;-63
2023/08/07 10:19:07;;;;;;;1.60;1.20;;;21.40;60.80;;;;;;5090055;28;20120;-62
2023/08/07 10:21:36;;;;;;;2.55;1.55;;;21.60;60.60;;;;;;5111220;28;20039;-62
2023/08/07 10:24:04;;;;;;;3.55;1.33;;;21.60;59.80;;;;;;5089475;28;20594;-62
2023/08/07 10:26:32;;;;;;;3.13;1.35;;;21.50;60.00;;;;;;5111424;28;20078;-62
2023/08/07 10:28:59;;;;;;;1.55;1.45;;;21.70;61.00;;;;;;5089713;28;20028;-62
2023/08/07 10:31:25;;;;;;;2.70;1.10;;;21.80;59.70;;;;;;5110764;28;20211;-62
2023/08/07 10:33:51;;;;;;;2.97;1.45;;;21.90;59.50;;;;;;5089046;28;20032;-63
2023/08/07 10:36:18;;;;;;;3.50;1.20;;;21.90;60.10;;;;;;5111516;28;20027;-63
2023/08/07 10:38:43;;;;;;;1.90;1.25;;;21.80;60.20;;;;;;5089489;28;20509;-62
2023/08/07 10:41:12;;;;;;;3.05;1.50;;;21.80;60.40;;;;;;5110654;28;20032;-62
2023/08/07 10:43:39;;;;;;;2.55;1.20;;;21.80;60.00;;;;;;5089381;28;20035;-63
2023/08/07 10:46:08;;;;;;;4.53;1.40;;;21.80;59.80;;;;;;5110797;28;20111;-62
2023/08/07 10:48:39;;;;;;;1.45;1.15;;;21.90;59.80;;;;;;5089253;28;20028;-63
2023/08/07 10:51:05;;;;;;;2.95;1.30;;;21.70;59.50;;;;;;5110255;28;20050;-62
2023/08/07 10:53:34;;;;;;;1.23;1.13;;;21.60;60.10;;;;;;5089479;28;20579;-63
2023/08/07 10:56:09;;;;;;;3.40;1.20;;;21.60;61.10;;;;;;5109431;28;20124;-62
2023/08/07 10:58:39;;;;;;;3.13;1.52;;;21.70;60.40;;;;;;5089132;28;20026;-63
2023/08/07 11:01:40;;;;;;;1.40;0.90;;;21.70;57.80;;;;;;5070310;28;20039;-62
2023/08/07 11:04:14;;;;;;;1.63;1.17;;;21.80;56.90;;;;;;5087328;28;20032;-62
2023/08/07 11:06:40;;;;;;;2.95;1.42;;;21.70;57.50;;;;;;5110344;28;20122;-63
2023/08/07 11:09:08;;;;;;;6.10;1.40;;;21.80;57.50;;;;;;5089096;28;20028;-62
2023/08/07 11:11:45;;;;;;;2.95;1.42;;;21.70;55.90;;;;;;5110346;28;20039;-63
2023/08/07 11:14:13;;;;;;;2.72;1.27;;;21.60;57.10;;;;;;5087981;28;20111;-63
2023/08/07 11:16:39;;;;;;;3.40;1.10;;;21.70;57.00;;;;;;5110221;28;20119;-63
2023/08/07 11:19:05;;;;;;;3.70;1.23;;;21.50;57.80;;;;;;5088916;28;20112;-62
2023/08/07 11:21:31;;;;;;;1.73;1.10;;;21.30;58.40;;;;;;5108678;28;20491;-63
2023/08/07 11:23:57;;;;;;;2.17;1.38;;;21.10;59.50;;;;;;5088777;28;20032;-62
2023/08/07 11:26:24;;;;;;;1.58;1.10;;;20.90;61.30;;;;;;5109503;28;20101;-62
2023/08/07 11:28:50;;;;;;;3.05;1.27;;;20.60;63.30;;;;;;5088717;28;20400;-62
2023/08/07 11:31:17;;;;;;;1.52;1.33;;;20.60;63.70;;;;;;5109468;28;20084;-63
2023/08/07 11:33:43;;;;;;;1.75;1.20;;;20.70;63.20;;;;;;5087103;28;20030;-62
2023/08/07 11:36:15;;;;;;;3.55;1.38;;;20.90;62.00;;;;;;5110387;28;20386;-62
2023/08/07 11:38:43;;;;;;;1.83;1.20;;;21.00;60.00;;;;;;5088044;28;20392;-63
2023/08/07 11:41:10;;;;;;;2.00;0.93;;;20.90;59.40;;;;;;5109978;28;20027;-62
2023/08/07 11:43:36;;;;;;;3.22;1.30;;;20.80;60.20;;;;;;5088549;28;20062;-62
2023/08/07 11:46:04;;;;;;;2.67;1.10;;;20.90;60.50;;;;;;5109336;28;20508;-62
2023/08/07 11:48:33;;;;;;;1.65;0.90;;;21.00;60.50;;;;;;5088361;28;20410;-63
2023/08/07 11:51:00;;;;;;;1.88;1.10;;;21.10;60.70;;;;;;5109689;28;20028;-62
2023/08/07 11:53:27;;;;;;;2.03;0.90;;;21.30;61.10;;;;;;5088306;28;20032;-62
2023/08/07 11:55:58;;;;;;;1.60;1.10;;;21.50;60.90;;;;;;5109671;28;20138;-63
2023/08/07 11:58:33;;;;;;;2.58;1.20;;;21.40;61.10;;;;;;5080366;28;20107;-62
2023/08/07 12:00:58;;;;;;;4.32;1.52;;;21.30;61.10;;;;;;5069461;28;20025;-63
2023/08/07 12:03:26;;;;;;;3.08;1.00;;;21.30;61.60;;;;;;5093714;28;20554;-63
2023/08/07 12:05:52;;;;;;;2.78;1.05;;;21.30;61.50;;;;;;5109461;28;20515;-63
2023/08/07 12:08:18;;;;;;;3.45;1.23;;;21.30;61.40;;;;;;5087827;27;20148;-62
2023/08/07 12:10:44;;;;;;;2.95;1.38;;;21.40;61.30;;;;;;5108707;28;20101;-63
2023/08/07 12:13:11;;;;;;;3.63;1.38;;;21.40;61.30;;;;;;5087976;28;20058;-62
2023/08/07 12:15:37;;;;;;;3.70;1.02;;;21.50;61.40;;;;;;5109242;28;20020;-63
2023/08/07 12:18:03;;;;;;;4.05;1.73;;;21.50;60.80;;;;;;5086271;28;20403;-62
2023/08/07 12:20:29;;;;;;;2.88;1.33;;;21.50;60.50;;;;;;5108820;28;20026;-63
2023/08/07 12:22:54;;;;;;;1.95;1.33;;;21.60;60.90;;;;;;5088008;28;20567;-61
2023/08/07 12:25:20;;;;;;;4.68;1.15;;;21.60;59.90;;;;;;5108769;28;20388;-63
2023/08/07 12:27:47;;;;;;;4.32;1.55;;;21.50;59.40;;;;;;5086535;28;20032;-63
2023/08/07 12:30:13;;;;;;;4.35;1.30;;;21.60;59.50;;;;;;5094936;28;20044;-62
2023/08/07 12:32:39;;;;;;;3.97;1.42;;;21.70;59.50;;;;;;5101149;28;20767;-63
2023/08/07 12:35:08;;;;;;;2.15;1.20;;;21.70;59.40;;;;;;5098492;28;20064;-62
2023/08/07 12:37:33;;;;;;;4.00;1.33;;;21.80;58.70;;;;;;5087353;28;20496;-63
2023/08/07 12:39:59;;;;;;;2.85;1.50;;;21.80;59.20;;;;;;5088893;28;20036;-63
2023/08/07 12:42:24;;;;;;;4.80;1.33;;;21.80;59.10;;;;;;5102058;28;20032;-62
2023/08/07 12:44:50;;;;;;;3.55;1.20;;;21.90;58.90;;;;;;5089151;28;20107;-62